createdAt,value
2018-02-22T00:00:38.596Z,4.70
2018-02-22T00:03:06.087Z,4.80
2018-02-22T00:05:33.513Z,4.70
2018-02-22T00:08:00.983Z,4.70
2018-02-22T00:10:28.418Z,4.60
2018-02-22T00:12:55.864Z,4.60
2018-02-22T00:15:23.361Z,4.70
2018-02-22T00:17:51.136Z,4.80
2018-02-22T00:20:18.685Z,4.80
2018-02-22T00:22:46.124Z,4.80
2018-02-22T00:25:13.835Z,4.70
2018-02-22T00:27:42.084Z,4.60
2018-02-22T00:30:09.632Z,4.60
2018-02-22T00:32:37.074Z,4.60
2018-02-22T00:35:04.552Z,4.70
2018-02-22T00:37:32.110Z,4.60
2018-02-22T00:39:59.563Z,4.50
2018-02-22T00:42:27.120Z,4.60
2018-02-22T00:44:54.579Z,4.60
2018-02-22T00:47:22.042Z,4.60
2018-02-22T00:49:49.600Z,4.60
2018-02-22T00:52:17.056Z,4.60
2018-02-22T00:54:44.611Z,4.60
2018-02-22T00:57:12.056Z,4.50
2018-02-22T00:59:39.501Z,4.50
2018-02-22T01:02:06.984Z,4.60
2018-02-22T01:04:34.446Z,4.50
2018-02-22T01:07:01.893Z,4.60
2018-02-22T01:09:29.352Z,4.50
2018-02-22T01:11:56.791Z,4.50
2018-02-22T01:14:24.611Z,4.40
2018-02-22T01:16:52.814Z,4.50
2018-02-22T01:19:20.255Z,4.50
2018-02-22T01:21:48.463Z,4.50
2018-02-22T01:24:15.947Z,4.50
2018-02-22T01:26:43.392Z,4.50
2018-02-22T01:29:10.828Z,4.40
2018-02-22T01:31:38.311Z,4.50
2018-02-22T01:34:05.867Z,4.60
2018-02-22T01:36:33.321Z,4.50
2018-02-22T01:39:00.779Z,4.50
2018-02-22T01:41:28.240Z,4.60
2018-02-22T01:43:55.696Z,4.60
2018-02-22T01:46:23.155Z,4.50
2018-02-22T01:48:50.595Z,4.50
2018-02-22T01:51:18.059Z,4.50
2018-02-22T01:53:45.503Z,4.50
2018-02-22T01:56:12.975Z,4.50
2018-02-22T01:58:40.411Z,4.40
2018-02-22T02:01:07.853Z,4.50
2018-02-22T02:03:35.300Z,4.40
2018-02-22T02:06:03.524Z,4.50
2018-02-22T02:08:30.967Z,4.50
2018-02-22T02:10:58.443Z,4.50
2018-02-22T02:13:25.877Z,4.50
2018-02-22T02:15:53.335Z,4.40
2018-02-22T02:18:20.775Z,4.40
2018-02-22T02:20:48.264Z,4.50
2018-02-22T02:23:15.712Z,4.50
2018-02-22T02:25:44.099Z,4.50
2018-02-22T02:28:11.544Z,4.50
2018-02-22T02:30:39.016Z,4.50
2018-02-22T02:33:06.476Z,4.50
2018-02-22T02:35:33.928Z,4.50
2018-02-22T02:38:01.378Z,4.40
2018-02-22T02:40:28.839Z,4.50
2018-02-22T02:42:56.300Z,4.50
2018-02-22T02:45:23.736Z,4.40
2018-02-22T02:47:51.187Z,4.50
2018-02-22T02:50:18.701Z,4.40
2018-02-22T02:52:46.143Z,4.40
2018-02-22T02:55:13.683Z,4.50
2018-02-22T02:57:41.124Z,4.50
2018-02-22T03:00:08.574Z,4.50
2018-02-22T03:02:36.063Z,4.50
2018-02-22T03:05:03.517Z,4.50
2018-02-22T03:07:31.066Z,4.40
2018-02-22T03:09:58.503Z,4.40
2018-02-22T03:12:25.959Z,4.40
2018-02-22T03:14:53.390Z,4.50
2018-02-22T03:17:21.588Z,4.50
2018-02-22T03:19:49.023Z,4.50
2018-02-22T03:22:16.460Z,4.40
2018-02-22T03:24:43.993Z,4.40
2018-02-22T03:27:11.427Z,4.40
2018-02-22T03:29:38.879Z,4.50
2018-02-22T03:32:06.320Z,4.50
2018-02-22T03:34:34.639Z,4.40
2018-02-22T03:37:02.196Z,4.40
2018-02-22T03:39:29.644Z,4.40
2018-02-22T03:41:57.093Z,4.30
2018-02-22T03:44:24.542Z,4.40
2018-02-22T03:46:52.024Z,4.40
2018-02-22T03:49:19.464Z,4.30
2018-02-22T03:51:46.923Z,4.30
2018-02-22T03:54:14.396Z,4.40
2018-02-22T03:56:41.847Z,4.30
2018-02-22T03:59:09.308Z,4.30
2018-02-22T04:01:36.763Z,4.30
2018-02-22T04:04:04.217Z,4.30
2018-02-22T04:06:31.673Z,4.40
2018-02-22T04:08:59.135Z,4.40
2018-02-22T04:11:26.576Z,4.40
2018-02-22T04:13:54.017Z,4.40
2018-02-22T04:16:21.500Z,4.30
2018-02-22T04:18:48.944Z,4.40
2018-02-22T04:21:16.385Z,4.40
2018-02-22T04:23:43.821Z,4.40
2018-02-22T04:26:12.043Z,4.30
2018-02-22T04:28:39.486Z,4.20
2018-02-22T04:31:06.930Z,4.20
2018-02-22T04:33:34.364Z,4.20
2018-02-22T04:36:02.583Z,4.30
2018-02-22T04:38:30.048Z,4.20
2018-02-22T04:40:57.487Z,4.30
2018-02-22T04:43:24.927Z,4.40
2018-02-22T04:45:52.448Z,4.30
2018-02-22T04:48:19.972Z,4.30
2018-02-22T04:50:47.408Z,4.30
2018-02-22T04:53:14.889Z,4.30
2018-02-22T04:55:42.324Z,4.30
2018-02-22T04:58:10.036Z,4.30
2018-02-22T05:00:37.468Z,4.20
2018-02-22T05:03:04.924Z,4.30
2018-02-22T05:05:33.199Z,4.20
2018-02-22T05:08:00.757Z,4.20
2018-02-22T05:10:28.214Z,4.20
2018-02-22T05:12:56.519Z,4.30
2018-02-22T05:15:24.361Z,4.30
2018-02-22T05:17:52.540Z,4.30
2018-02-22T05:20:20.087Z,4.20
2018-02-22T05:22:47.547Z,4.30
2018-02-22T05:25:15.215Z,4.30
2018-02-22T05:27:42.664Z,4.30
2018-02-22T05:30:10.120Z,4.20
2018-02-22T05:32:37.831Z,4.30
2018-02-22T05:35:06.023Z,4.30
2018-02-22T05:37:33.755Z,4.30
2018-02-22T05:40:01.973Z,4.10
2018-02-22T05:42:29.502Z,4.10
2018-02-22T05:44:56.919Z,4.00
2018-02-22T05:47:24.367Z,4.10
2018-02-22T05:49:51.940Z,4.20
2018-02-22T05:52:19.487Z,4.10
2018-02-22T05:54:46.943Z,4.00
2018-02-22T05:57:14.401Z,4.10
2018-02-22T05:59:42.399Z,4.10
2018-02-22T06:02:09.928Z,3.80
2018-02-22T06:04:37.382Z,3.90
2018-02-22T06:07:04.823Z,3.90
2018-02-22T06:09:32.255Z,3.90
2018-02-22T06:11:59.756Z,3.90
2018-02-22T06:14:27.212Z,3.90
2018-02-22T06:16:54.675Z,3.90
2018-02-22T06:19:22.154Z,3.80
2018-02-22T06:21:49.685Z,3.90
2018-02-22T06:24:17.127Z,3.80
2018-02-22T06:26:44.596Z,3.80
2018-02-22T06:29:12.044Z,3.80
2018-02-22T06:31:39.503Z,3.80
2018-02-22T06:34:06.937Z,3.90
2018-02-22T06:36:34.401Z,3.90
2018-02-22T06:39:01.841Z,3.80
2018-02-22T06:41:29.278Z,3.80
2018-02-22T06:43:57.492Z,3.80
2018-02-22T06:46:24.971Z,3.80
2018-02-22T06:48:52.428Z,3.80
2018-02-22T06:51:19.863Z,3.90
2018-02-22T06:53:47.340Z,3.90
2018-02-22T06:56:14.801Z,3.90
2018-02-22T06:58:42.257Z,3.90
2018-02-22T07:01:09.804Z,3.90
2018-02-22T07:03:37.277Z,4.00
2018-02-22T07:06:04.735Z,4.00
2018-02-22T07:08:32.288Z,4.10
2018-02-22T07:10:59.737Z,3.90
2018-02-22T07:13:27.207Z,4.00
2018-02-22T07:15:54.662Z,4.10
2018-02-22T07:18:22.096Z,4.10
2018-02-22T07:20:50.104Z,4.10
2018-02-22T07:23:17.551Z,4.10
2018-02-22T07:25:45.100Z,4.20
2018-02-22T07:28:12.560Z,4.20
2018-02-22T07:30:40.899Z,4.20
2018-02-22T07:33:08.392Z,4.30
2018-02-22T07:35:35.965Z,4.20
2018-02-22T07:38:03.406Z,4.20
2018-02-22T07:40:31.636Z,4.20
2018-02-22T07:42:59.067Z,4.30
2018-02-22T07:45:26.575Z,4.30
2018-02-22T07:47:54.020Z,4.30
2018-02-22T07:50:21.512Z,4.30
2018-02-22T07:52:48.969Z,4.40
2018-02-22T07:55:16.408Z,4.40
2018-02-22T07:57:43.886Z,4.40
2018-02-22T08:00:11.378Z,4.40
2018-02-22T08:02:39.109Z,4.40
2018-02-22T08:05:06.535Z,4.40
2018-02-22T08:07:33.972Z,4.50
2018-02-22T08:10:01.668Z,4.50
2018-02-22T08:12:29.130Z,4.60
2018-02-22T08:14:57.308Z,4.70
2018-02-22T08:17:24.975Z,4.70
2018-02-22T08:19:52.432Z,4.70
2018-02-22T08:22:19.872Z,4.70
2018-02-22T08:24:47.307Z,4.80
2018-02-22T08:27:14.751Z,4.90
2018-02-22T08:29:42.971Z,5.20
2018-02-22T08:32:10.407Z,5.20
2018-02-22T08:34:37.856Z,5.30
2018-02-22T08:37:05.349Z,5.40
2018-02-22T08:39:33.228Z,5.50
2018-02-22T08:42:00.772Z,5.60
2018-02-22T08:44:29.054Z,5.70
2018-02-22T08:46:57.016Z,5.80
2018-02-22T08:49:24.478Z,5.80
2018-02-22T08:51:51.923Z,5.90
2018-02-22T08:54:19.483Z,5.90
2018-02-22T08:56:46.928Z,6.00
2018-02-22T08:59:14.359Z,6.00
2018-02-22T09:01:41.792Z,6.10
2018-02-22T09:04:10.032Z,6.20
2018-02-22T09:06:37.607Z,6.20
2018-02-22T09:09:05.035Z,6.30
2018-02-22T09:11:32.505Z,6.30
2018-02-22T09:13:59.967Z,6.30
2018-02-22T09:16:27.440Z,6.30
2018-02-22T09:18:54.895Z,6.40
2018-02-22T09:21:22.342Z,6.50
2018-02-22T09:23:49.775Z,6.60
2018-02-22T09:26:17.226Z,6.60
2018-02-22T09:28:44.703Z,6.70
2018-02-22T09:31:12.263Z,6.70
2018-02-22T09:33:39.787Z,6.70
2018-02-22T09:36:07.279Z,6.80
2018-02-22T09:38:34.839Z,6.80
2018-02-22T09:41:02.275Z,6.80
2018-02-22T09:43:29.747Z,6.80
2018-02-22T09:45:57.184Z,6.70
2018-02-22T09:48:24.664Z,6.60
2018-02-22T09:50:52.092Z,6.70
2018-02-22T09:53:19.531Z,6.70
2018-02-22T09:55:47.760Z,6.80
2018-02-22T09:58:15.191Z,6.80
2018-02-22T10:00:42.667Z,6.90
2018-02-22T10:03:10.099Z,6.90
2018-02-22T10:05:37.577Z,6.90
2018-02-22T10:08:05.016Z,6.90
2018-02-22T10:10:32.462Z,7.00
2018-02-22T10:12:59.951Z,7.00
2018-02-22T10:15:27.411Z,7.10
2018-02-22T10:17:54.966Z,7.00
2018-02-22T10:20:22.423Z,7.00
2018-02-22T10:22:49.861Z,7.10
2018-02-22T10:25:17.343Z,7.10
2018-02-22T10:27:45.327Z,7.10
2018-02-22T10:30:12.777Z,7.00
2018-02-22T10:32:40.211Z,6.90
2018-02-22T10:35:07.676Z,7.00
2018-02-22T10:37:35.136Z,7.00
2018-02-22T10:40:02.576Z,7.00
2018-02-22T10:42:30.044Z,6.90
2018-02-22T10:44:57.503Z,6.90
2018-02-22T10:47:25.476Z,7.00
2018-02-22T10:49:52.916Z,7.00
2018-02-22T10:52:20.378Z,7.00
2018-02-22T10:54:47.854Z,6.90
2018-02-22T10:57:15.276Z,7.00
2018-02-22T10:59:42.760Z,7.10
2018-02-22T11:02:15.884Z,7.10
2018-02-22T11:04:44.120Z,7.10
2018-02-22T11:07:11.563Z,7.10
2018-02-22T11:09:39.000Z,7.10
2018-02-22T11:12:06.431Z,7.10
2018-02-22T11:14:35.540Z,7.20
2018-02-22T11:17:02.927Z,7.10
2018-02-22T11:19:30.396Z,7.20
2018-02-22T11:21:57.852Z,7.30
2018-02-22T11:24:25.320Z,7.30
2018-02-22T11:26:52.763Z,7.20
2018-02-22T11:29:20.192Z,7.20
2018-02-22T11:31:47.667Z,7.10
2018-02-22T11:34:15.144Z,7.20
2018-02-22T11:36:42.576Z,7.30
2018-02-22T11:39:10.053Z,7.40
2018-02-22T11:41:37.504Z,7.50
2018-02-22T11:44:04.995Z,7.40
2018-02-22T11:46:32.380Z,7.30
2018-02-22T11:48:59.831Z,7.30
2018-02-22T11:51:27.331Z,7.40
2018-02-22T11:53:54.779Z,7.40
2018-02-22T11:56:22.252Z,7.40
2018-02-22T11:58:49.704Z,7.50
2018-02-22T12:01:17.160Z,7.60
2018-02-22T12:03:44.595Z,7.60
2018-02-22T12:06:12.821Z,7.70
2018-02-22T12:08:40.467Z,7.70
2018-02-22T12:11:07.911Z,7.70
2018-02-22T12:13:35.372Z,7.80
2018-02-22T12:16:02.828Z,7.70
2018-02-22T12:18:30.284Z,7.50
2018-02-22T12:20:57.837Z,7.50
2018-02-22T12:23:25.299Z,7.50
2018-02-22T12:25:52.770Z,7.60
2018-02-22T12:28:20.313Z,7.70
2018-02-22T12:30:47.740Z,7.70
2018-02-22T12:33:15.176Z,7.70
2018-02-22T12:35:43.395Z,7.70
2018-02-22T12:38:10.836Z,7.60
2018-02-22T12:40:38.280Z,7.70
2018-02-22T12:43:05.728Z,7.70
2018-02-22T12:45:33.228Z,7.70
2018-02-22T12:48:00.665Z,7.70
2018-02-22T12:50:28.111Z,7.60
2018-02-22T12:52:55.599Z,7.60
2018-02-22T12:55:23.033Z,7.60
2018-02-22T12:57:50.472Z,7.60
2018-02-22T13:00:17.968Z,7.60
2018-02-22T13:02:45.403Z,7.70
2018-02-22T13:05:12.883Z,7.60
2018-02-22T13:07:40.443Z,7.50
2018-02-22T13:10:07.871Z,7.60
2018-02-22T13:12:35.303Z,7.50
2018-02-22T13:15:03.528Z,7.50
2018-02-22T13:17:30.983Z,7.60
2018-02-22T13:19:58.415Z,7.50
2018-02-22T13:22:25.899Z,7.50
2018-02-22T13:24:53.680Z,7.60
2018-02-22T13:27:21.223Z,7.60
2018-02-22T13:29:48.679Z,7.50
2018-02-22T13:32:16.136Z,7.50
2018-02-22T13:34:43.570Z,7.50
2018-02-22T13:37:22.980Z,7.50
2018-02-22T13:39:51.199Z,7.50
2018-02-22T13:42:18.659Z,7.50
2018-02-22T13:44:57.801Z,7.50
2018-02-22T13:47:25.228Z,7.50
2018-02-22T13:50:04.621Z,7.50
2018-02-22T13:52:32.863Z,7.50
2018-02-22T13:55:00.414Z,7.50
2018-02-22T13:57:27.876Z,7.40
2018-02-22T13:59:55.320Z,7.40
2018-02-22T14:02:24.903Z,7.40
2018-02-22T14:04:52.396Z,7.40
2018-02-22T14:07:19.859Z,7.30
2018-02-22T14:09:47.300Z,7.30
2018-02-22T14:12:14.775Z,7.30
2018-02-22T14:14:42.239Z,7.40
2018-02-22T14:17:09.823Z,7.40
2018-02-22T14:19:37.248Z,7.30
2018-02-22T14:22:04.801Z,7.30
2018-02-22T14:24:32.234Z,7.30
2018-02-22T14:26:59.656Z,7.30
2018-02-22T14:29:27.866Z,7.20
2018-02-22T14:31:55.296Z,7.20
2018-02-22T14:34:23.516Z,7.10
2018-02-22T14:36:50.972Z,7.10
2018-02-22T14:39:18.391Z,7.10
2018-02-22T14:41:45.910Z,7.10
2018-02-22T14:44:13.443Z,7.10
2018-02-22T14:46:40.866Z,7.10
2018-02-22T14:49:08.296Z,7.20
2018-02-22T14:51:36.504Z,7.10
2018-02-22T14:54:03.996Z,7.10
2018-02-22T14:56:31.547Z,7.10
2018-02-22T14:58:59.007Z,7.00
2018-02-22T15:01:26.478Z,7.00
2018-02-22T15:03:53.923Z,7.00
2018-02-22T15:06:21.383Z,7.00
2018-02-22T15:08:48.835Z,7.00
2018-02-22T15:11:16.299Z,7.00
2018-02-22T15:13:43.752Z,7.00
2018-02-22T15:16:11.195Z,7.00
2018-02-22T15:18:38.644Z,6.90
2018-02-22T15:21:06.120Z,6.90
2018-02-22T15:23:33.575Z,6.90
2018-02-22T15:26:01.832Z,6.80
2018-02-22T15:28:29.257Z,6.80
2018-02-22T15:30:57.455Z,6.80
2018-02-22T15:33:24.885Z,6.70
2018-02-22T15:35:53.096Z,6.80
2018-02-22T15:38:20.527Z,6.80
2018-02-22T15:40:47.987Z,6.70
2018-02-22T15:43:15.415Z,6.70
2018-02-22T15:45:42.944Z,6.60
2018-02-22T15:48:10.395Z,6.60
2018-02-22T15:50:37.824Z,6.60
2018-02-22T15:53:05.250Z,6.50
2018-02-22T15:55:33.481Z,6.50
2018-02-22T15:58:00.941Z,6.50
2018-02-22T16:00:28.371Z,6.50
2018-02-22T16:02:55.805Z,6.50
2018-02-22T16:05:24.007Z,6.40
2018-02-22T16:07:51.440Z,6.40
2018-02-22T16:10:18.868Z,6.40
2018-02-22T16:12:46.415Z,6.30
2018-02-22T16:15:13.851Z,6.30
2018-02-22T16:17:41.288Z,6.30
2018-02-22T16:20:08.747Z,6.30
2018-02-22T16:22:36.177Z,6.20
2018-02-22T16:25:04.400Z,6.10
2018-02-22T16:27:31.876Z,6.10
2018-02-22T16:29:59.271Z,6.10
2018-02-22T16:32:26.767Z,6.10
2018-02-22T16:34:54.227Z,6.00
2018-02-22T16:37:21.676Z,6.00
2018-02-22T16:39:49.105Z,6.00
2018-02-22T16:42:16.545Z,6.10
2018-02-22T16:44:44.780Z,6.00
2018-02-22T16:47:12.224Z,6.00
2018-02-22T16:49:39.661Z,6.00
2018-02-22T16:52:07.144Z,6.00
2018-02-22T16:54:34.601Z,5.80
2018-02-22T16:57:02.040Z,5.80
2018-02-22T16:59:29.464Z,5.80
2018-02-22T17:01:57.671Z,5.80
2018-02-22T17:04:25.143Z,5.80
2018-02-22T17:06:52.572Z,5.70
2018-02-22T17:09:20.070Z,5.70
2018-02-22T17:11:47.443Z,5.70
2018-02-22T17:14:14.972Z,5.70
2018-02-22T17:16:42.403Z,5.60
2018-02-22T17:19:09.856Z,5.70
2018-02-22T17:21:37.292Z,5.70
2018-02-22T17:24:04.805Z,5.70
2018-02-22T17:26:37.924Z,5.60
2018-02-22T17:29:11.960Z,5.60
2018-02-22T17:31:45.159Z,5.60
2018-02-22T17:34:12.754Z,5.60
2018-02-22T17:36:44.115Z,5.50
2018-02-22T17:42:20.944Z,5.50
2018-02-22T17:44:49.156Z,5.50
2018-02-22T17:47:16.625Z,5.40
2018-02-22T17:49:44.080Z,5.50
2018-02-22T17:52:11.547Z,5.40
2018-02-22T17:54:39.006Z,5.40
2018-02-22T17:57:06.435Z,5.40
2018-02-22T17:59:33.868Z,5.40
2018-02-22T18:02:01.308Z,5.30
2018-02-22T18:04:29.546Z,5.30
2018-02-22T18:06:56.988Z,5.40
2018-02-22T18:09:24.988Z,5.40
2018-02-22T18:11:52.443Z,5.30
2018-02-22T18:14:19.871Z,5.30
2018-02-22T18:16:47.315Z,5.30
2018-02-22T18:19:14.780Z,5.30
2018-02-22T18:21:42.207Z,5.40
2018-02-22T18:24:09.791Z,5.40
2018-02-22T18:26:37.212Z,5.30
2018-02-22T18:29:05.410Z,5.20
2018-02-22T18:31:32.900Z,5.20
2018-02-22T18:34:00.464Z,5.30
2018-02-22T18:36:27.892Z,5.30
2018-02-22T18:39:00.968Z,5.30
2018-02-22T18:41:28.709Z,5.30
2018-02-22T18:44:02.735Z,5.20
2018-02-22T18:46:30.163Z,5.20
2018-02-22T18:48:57.599Z,5.20
2018-02-22T18:51:25.141Z,5.10
2018-02-22T18:53:53.291Z,5.20
2018-02-22T18:56:20.723Z,5.20
2018-02-22T18:58:48.920Z,5.20
2018-02-22T19:01:16.351Z,5.10
2018-02-22T19:03:44.568Z,5.20
2018-02-22T19:06:12.026Z,5.20
2018-02-22T19:08:39.444Z,5.10
2018-02-22T19:11:07.649Z,5.10
2018-02-22T19:13:35.068Z,5.20
2018-02-22T19:16:03.279Z,5.00
2018-02-22T19:18:30.768Z,4.90
2018-02-22T19:20:58.201Z,4.80
2018-02-22T19:23:25.636Z,4.80
2018-02-22T19:25:53.113Z,4.90
2018-02-22T19:28:21.267Z,4.90
2018-02-22T19:30:48.692Z,4.90
2018-02-22T19:33:16.887Z,4.80
2018-02-22T19:35:44.328Z,4.80
2018-02-22T19:38:12.524Z,5.00
2018-02-22T19:40:40.000Z,5.00
2018-02-22T19:43:07.431Z,5.00
2018-02-22T19:45:35.632Z,5.00
2018-02-22T19:48:03.063Z,5.00
2018-02-22T19:50:30.499Z,4.90
2018-02-22T19:52:58.687Z,5.00
2018-02-22T19:55:26.892Z,4.90
2018-02-22T19:57:54.331Z,5.00
2018-02-22T20:00:21.761Z,4.90
2018-02-22T20:02:49.963Z,4.60
2018-02-22T20:05:17.407Z,4.60
2018-02-22T20:07:45.612Z,4.60
2018-02-22T20:10:13.072Z,4.60
2018-02-22T20:12:40.503Z,4.50
2018-02-22T20:15:07.949Z,4.50
2018-02-22T20:17:36.165Z,4.30
2018-02-22T20:20:03.587Z,4.30
2018-02-22T20:22:31.021Z,4.50
2018-02-22T20:24:58.473Z,4.40
2018-02-22T20:27:25.907Z,4.40
2018-02-22T20:29:53.335Z,4.40
2018-02-22T20:32:20.772Z,4.30
2018-02-22T20:34:48.206Z,4.40
2018-02-22T20:37:16.431Z,4.70
2018-02-22T20:39:43.871Z,4.70
2018-02-22T20:42:11.304Z,4.60
2018-02-22T20:44:39.537Z,4.80
2018-02-22T20:47:06.956Z,4.80
2018-02-22T20:49:34.383Z,4.80
2018-02-22T20:52:02.597Z,4.50
2018-02-22T20:54:30.028Z,4.50
2018-02-22T20:56:58.226Z,4.50
2018-02-22T20:59:25.668Z,4.50
2018-02-22T21:01:53.121Z,4.40
2018-02-22T21:04:20.547Z,4.60
2018-02-22T21:06:47.974Z,4.70
2018-02-22T21:09:15.416Z,4.30
2018-02-22T21:11:42.851Z,4.10
2018-02-22T21:14:10.288Z,4.30
2018-02-22T21:16:38.494Z,4.20
2018-02-22T21:19:05.925Z,4.20
2018-02-22T21:21:34.140Z,4.20
2018-02-22T21:24:01.568Z,4.10
2018-02-22T21:26:28.996Z,4.20
2018-02-22T21:28:57.204Z,4.10
2018-02-22T21:31:24.644Z,4.10
2018-02-22T21:33:52.846Z,4.10
2018-02-22T21:36:20.275Z,4.10
2018-02-22T21:38:47.715Z,4.10
2018-02-22T21:41:15.147Z,3.90
2018-02-22T21:43:42.604Z,4.00
2018-02-22T21:46:10.057Z,4.20
2018-02-22T21:48:37.503Z,4.40
2018-02-22T21:51:04.944Z,4.40
2018-02-22T21:53:32.371Z,4.60
2018-02-22T21:56:00.597Z,4.50
2018-02-22T21:58:28.039Z,4.50
2018-02-22T22:00:55.508Z,4.50
2018-02-22T22:03:22.939Z,4.50
2018-02-22T22:05:50.367Z,4.40
2018-02-22T22:08:18.591Z,4.50
2018-02-22T22:10:46.767Z,4.50
2018-02-22T22:13:14.199Z,4.40
2018-02-22T22:15:41.644Z,4.50
2018-02-22T22:18:09.088Z,4.50
2018-02-22T22:20:37.287Z,4.50
2018-02-22T22:23:04.731Z,4.50
2018-02-22T22:25:32.228Z,4.60
2018-02-22T22:27:59.700Z,4.60
2018-02-22T22:30:29.498Z,4.50
2018-02-22T22:32:56.958Z,4.50
2018-02-22T22:35:24.619Z,4.40
2018-02-22T22:37:52.281Z,4.50
2018-02-22T22:40:19.731Z,4.50
2018-02-22T22:42:47.180Z,4.50
2018-02-22T22:45:14.659Z,4.40
2018-02-22T22:47:42.115Z,4.30
2018-02-22T22:50:09.562Z,4.40
2018-02-22T22:52:36.993Z,4.50
2018-02-22T22:55:04.434Z,4.40
2018-02-22T22:57:32.035Z,4.50
2018-02-22T22:59:59.488Z,4.50
2018-02-22T23:02:26.949Z,4.50
2018-02-22T23:04:54.410Z,4.50
2018-02-22T23:07:21.841Z,4.50
2018-02-22T23:09:49.269Z,4.30
2018-02-22T23:12:18.001Z,4.40
2018-02-22T23:14:45.434Z,4.30
2018-02-22T23:17:13.547Z,4.40
2018-02-22T23:19:40.968Z,4.40
2018-02-22T23:22:08.444Z,4.40
2018-02-22T23:24:35.896Z,4.40
2018-02-22T23:27:03.330Z,4.30
2018-02-22T23:29:30.775Z,4.40
2018-02-22T23:31:58.203Z,4.30
2018-02-22T23:34:26.401Z,4.30
2018-02-22T23:36:53.836Z,4.30
2018-02-22T23:39:22.031Z,4.30
2018-02-22T23:44:53.516Z,4.30
2018-02-22T23:47:20.963Z,4.30
2018-02-22T23:49:48.391Z,4.40
2018-02-22T23:52:15.824Z,4.30
2018-02-22T23:54:43.260Z,4.40
2018-02-22T23:57:10.744Z,4.30
2018-02-22T23:59:38.172Z,4.20
